Route Details

Aircraft Information
Group: Large Widebodies
Types: B744, MD11
Route Data
Distance: 2281nm
Duration: 6h 00m
Origin METAR: SPJC 010600Z 16011KT CAVOK 21/19 Q1011 NOSIG RMK PP000
Dest. METAR: KMIA 010553Z 11004KT 10SM CLR 23/20 A3017 RMK AO2 SLP218 T02280200 10250 20228 58008 $
Freight Data
(for Feb 1, 2023)
Load Factor:
62%
Manifested Cargo: 141,499lbs
Financial History
Total Freight: 1,277,814lbs
Average Load: 0lbs/flt
Fuel Used: 823,158lbs
Avg. Fuel Used: 0lbs/flt
Fuel Expense: $561,108
Avg. Fuel Expense: $0
Avg. Fuel Cost: $0/lbs
Total Gross Income: $3,812,590
Pilot Pay: $2,349
Total Expenses: $478,087
Total Revenue: $2,760,158
Average Revenue: $0

Capitol Logistics 728




SPJC
Jorge Chávez International Airport
Lima, PE
KMIA
Miami International Airport
Miami, US